createdAt,value
2018-03-25T00:00:10.513Z,17.90
2018-03-25T00:02:38.021Z,16.97
2018-03-25T00:05:06.268Z,18.10
2018-03-25T00:07:33.785Z,19.70
2018-03-25T00:10:01.277Z,22.60
2018-03-25T00:12:28.766Z,23.07
2018-03-25T00:14:56.280Z,21.80
2018-03-25T00:17:23.770Z,19.70
2018-03-25T00:19:51.276Z,19.33
2018-03-25T00:22:18.765Z,21.13
2018-03-25T00:24:46.278Z,23.40
2018-03-25T00:27:13.769Z,22.80
2018-03-25T00:29:41.284Z,20.80
2018-03-25T00:32:09.537Z,22.07
2018-03-25T00:34:37.025Z,23.30
2018-03-25T00:37:05.300Z,22.07
2018-03-25T00:39:33.557Z,25.10
2018-03-25T00:42:01.069Z,23.60
2018-03-25T00:44:28.557Z,21.97
2018-03-25T00:46:56.070Z,22.50
2018-03-25T00:49:23.553Z,23.17
2018-03-25T00:51:51.061Z,21.53
2018-03-25T00:54:19.317Z,21.40
2018-03-25T00:56:46.805Z,21.50
2018-03-25T00:59:15.072Z,25.17
2018-03-25T01:01:43.329Z,23.03
2018-03-25T01:04:10.837Z,22.40
2018-03-25T01:06:38.329Z,20.80
2018-03-25T01:09:05.837Z,21.10
2018-03-25T01:11:33.344Z,20.93
2018-03-25T01:14:00.852Z,21.77
2018-03-25T01:16:28.341Z,20.87
2018-03-25T01:18:55.844Z,21.40
2018-03-25T01:21:23.341Z,21.90
2018-03-25T01:23:50.833Z,19.70
2018-03-25T01:26:18.341Z,20.10
2018-03-25T01:28:45.833Z,20.93
2018-03-25T01:31:13.340Z,21.30
2018-03-25T01:33:41.588Z,21.13
2018-03-25T01:36:09.092Z,18.77
2018-03-25T01:38:36.576Z,20.00
2018-03-25T01:41:04.085Z,22.00
2018-03-25T01:43:32.341Z,19.50
2018-03-25T01:45:59.836Z,19.97
2018-03-25T01:48:28.113Z,19.80
2018-03-25T01:50:56.369Z,20.53
2018-03-25T01:53:24.649Z,19.83
2018-03-25T01:55:52.905Z,20.63
2018-03-25T01:58:20.417Z,21.20
2018-03-25T02:00:47.905Z,21.17
2018-03-25T02:03:15.418Z,21.30
2018-03-25T02:05:42.914Z,21.17
2018-03-25T02:08:10.408Z,20.17
2018-03-25T02:10:37.922Z,20.57
2018-03-25T02:13:05.426Z,22.20
2018-03-25T02:15:32.950Z,20.87
2018-03-25T02:18:00.441Z,20.70
2018-03-25T02:20:27.954Z,21.67
2018-03-25T02:22:55.444Z,20.63
2018-03-25T02:25:22.959Z,21.80
2018-03-25T02:27:50.449Z,20.43
2018-03-25T02:30:17.941Z,21.50
2018-03-25T02:32:46.227Z,21.60
2018-03-25T02:35:14.494Z,22.63
2018-03-25T02:37:42.779Z,20.40
2018-03-25T02:40:11.033Z,20.50
2018-03-25T02:42:38.550Z,20.07
2018-03-25T02:45:06.042Z,19.97
2018-03-25T02:47:33.562Z,20.40
2018-03-25T02:50:01.114Z,20.30
2018-03-25T02:52:28.566Z,22.30
2018-03-25T02:54:56.086Z,21.40
2018-03-25T02:57:23.586Z,21.00
2018-03-25T02:59:51.105Z,20.93
2018-03-25T03:02:18.642Z,20.83
2018-03-25T03:04:46.154Z,19.90
2018-03-25T03:07:13.653Z,20.13
2018-03-25T03:09:41.166Z,19.50
2018-03-25T03:12:08.657Z,20.80
2018-03-25T03:14:36.144Z,21.00
2018-03-25T03:17:03.657Z,20.50
2018-03-25T03:19:31.156Z,20.07
2018-03-25T03:21:58.665Z,19.83
2018-03-25T03:24:26.148Z,20.00
2018-03-25T03:26:53.657Z,19.50
2018-03-25T03:29:21.915Z,20.60
2018-03-25T03:31:49.422Z,20.07
2018-03-25T03:34:16.916Z,18.80
2018-03-25T03:36:44.405Z,19.10
2018-03-25T03:39:12.681Z,20.20
2018-03-25T03:41:40.935Z,20.73
2018-03-25T03:44:08.446Z,19.73
2018-03-25T03:46:35.936Z,19.80
2018-03-25T03:49:03.449Z,19.97
2018-03-25T03:51:31.700Z,20.73
2018-03-25T03:53:59.213Z,20.00
2018-03-25T03:56:26.705Z,20.50
2018-03-25T03:58:54.193Z,22.10
2018-03-25T04:01:22.466Z,21.07
2018-03-25T04:03:50.721Z,21.50
2018-03-25T04:06:18.232Z,19.40
2018-03-25T04:08:45.717Z,21.43
2018-03-25T04:11:13.229Z,20.40
2018-03-25T04:13:40.722Z,20.23
2018-03-25T04:16:08.233Z,19.30
2018-03-25T04:18:36.484Z,20.70
2018-03-25T04:21:03.972Z,21.03
2018-03-25T04:23:32.249Z,21.57
2018-03-25T04:26:00.506Z,20.93
2018-03-25T04:28:28.021Z,19.73
2018-03-25T04:30:55.518Z,19.73
2018-03-25T04:33:23.029Z,20.07
2018-03-25T04:35:50.518Z,20.83
2018-03-25T04:38:18.028Z,20.23
2018-03-25T04:40:45.525Z,20.00
2018-03-25T04:43:13.011Z,18.80
2018-03-25T04:45:40.523Z,19.53
2018-03-25T04:48:08.018Z,19.23
2018-03-25T04:50:35.529Z,18.73
2018-03-25T04:53:03.017Z,18.37
2018-03-25T04:55:30.529Z,18.17
2018-03-25T04:57:58.017Z,19.57
2018-03-25T05:00:25.528Z,19.70
2018-03-25T05:02:53.789Z,20.27
2018-03-25T05:05:21.277Z,20.10
2018-03-25T05:07:49.553Z,19.37
2018-03-25T05:10:17.804Z,19.70
2018-03-25T05:12:45.313Z,19.30
2018-03-25T05:15:12.809Z,19.17
2018-03-25T05:17:40.321Z,19.03
2018-03-25T05:20:07.811Z,18.70
2018-03-25T05:22:35.322Z,19.07
2018-03-25T05:25:02.821Z,19.00
2018-03-25T05:27:30.304Z,18.37
2018-03-25T05:29:57.819Z,18.07
2018-03-25T05:32:25.312Z,18.57
2018-03-25T05:34:52.825Z,20.40
2018-03-25T05:37:20.316Z,18.80
2018-03-25T05:39:47.823Z,18.97
2018-03-25T05:42:16.082Z,18.53
2018-03-25T05:44:43.593Z,18.97
2018-03-25T05:47:11.092Z,19.67
2018-03-25T05:49:38.589Z,18.83
2018-03-25T05:52:06.101Z,18.93
2018-03-25T05:54:33.589Z,18.23
2018-03-25T05:57:01.864Z,18.60
2018-03-25T05:59:30.117Z,19.43
2018-03-25T06:01:57.630Z,18.93
2018-03-25T06:04:25.125Z,20.00
2018-03-25T06:06:52.633Z,22.90
2018-03-25T06:09:20.117Z,19.40
2018-03-25T06:11:47.601Z,18.97
2018-03-25T06:14:15.159Z,18.70
2018-03-25T06:16:42.613Z,18.93
2018-03-25T06:19:10.116Z,20.17
2018-03-25T06:21:37.606Z,19.70
2018-03-25T06:24:05.117Z,19.47
2018-03-25T06:26:33.364Z,19.67
2018-03-25T06:29:00.888Z,19.57
2018-03-25T06:31:28.376Z,20.50
2018-03-25T06:33:55.860Z,20.50
2018-03-25T06:36:23.368Z,20.70
2018-03-25T06:38:50.857Z,20.30
2018-03-25T06:41:18.373Z,20.43
2018-03-25T06:43:45.874Z,19.90
2018-03-25T06:46:13.393Z,19.30
2018-03-25T06:48:40.912Z,19.33
2018-03-25T06:51:09.917Z,20.40
2018-03-25T06:53:38.165Z,21.23
2018-03-25T06:56:05.657Z,19.53
2018-03-25T06:58:33.172Z,20.60
2018-03-25T07:01:00.669Z,21.90
2018-03-25T07:03:28.185Z,21.53
2018-03-25T07:05:55.673Z,20.80
2018-03-25T07:08:23.949Z,21.90
2018-03-25T07:10:52.200Z,21.90
2018-03-25T07:13:19.714Z,22.57
2018-03-25T07:15:47.209Z,23.87
2018-03-25T07:18:14.696Z,23.03
2018-03-25T07:20:42.976Z,20.87
2018-03-25T07:23:11.227Z,21.83
2018-03-25T07:25:38.743Z,21.93
2018-03-25T07:28:06.233Z,22.33
2018-03-25T07:30:33.744Z,22.03
2018-03-25T07:33:01.240Z,22.77
2018-03-25T07:35:28.752Z,24.13
2018-03-25T07:37:57.005Z,22.10
2018-03-25T07:40:24.493Z,23.90
2018-03-25T07:42:52.767Z,23.30
2018-03-25T07:45:21.013Z,22.20
2018-03-25T07:47:48.525Z,23.67
2018-03-25T07:50:16.013Z,23.10
2018-03-25T07:52:43.520Z,23.30
2018-03-25T07:55:11.773Z,23.67
2018-03-25T07:57:39.261Z,23.10
2018-03-25T08:00:06.768Z,23.40
2018-03-25T08:02:34.257Z,24.53
2018-03-25T08:05:02.526Z,24.50
2018-03-25T08:07:30.013Z,24.10
2018-03-25T08:09:57.521Z,23.70
2018-03-25T08:12:25.005Z,24.90
2018-03-25T08:14:53.256Z,23.93
2018-03-25T08:17:20.764Z,23.43
2018-03-25T08:19:48.258Z,24.17
2018-03-25T08:22:15.769Z,24.50
2018-03-25T08:24:44.021Z,24.30
2018-03-25T08:27:11.531Z,24.07
2018-03-25T08:29:39.021Z,24.40
2018-03-25T08:32:06.508Z,25.77
2018-03-25T08:34:34.790Z,25.47
2018-03-25T08:37:03.045Z,23.57
2018-03-25T08:39:30.550Z,23.77
2018-03-25T08:41:58.037Z,23.70
2018-03-25T08:44:25.559Z,25.17
2018-03-25T08:46:53.041Z,24.07
2018-03-25T08:49:20.533Z,24.60
2018-03-25T08:51:48.041Z,24.20
2018-03-25T08:54:15.530Z,23.90
2018-03-25T08:56:43.034Z,24.50
2018-03-25T08:59:11.285Z,23.73
2018-03-25T09:01:38.801Z,23.43
2018-03-25T09:04:06.303Z,24.90
2018-03-25T09:06:33.797Z,25.30
2018-03-25T09:09:01.305Z,23.67
2018-03-25T09:11:28.789Z,23.40
2018-03-25T09:13:57.065Z,25.03
2018-03-25T09:16:25.322Z,23.70
2018-03-25T09:18:52.829Z,23.70
2018-03-25T09:21:20.318Z,23.00
2018-03-25T09:23:47.809Z,24.00
2018-03-25T09:26:16.092Z,23.77
2018-03-25T09:28:44.354Z,24.40
2018-03-25T09:31:11.869Z,24.17
2018-03-25T09:33:39.361Z,24.67
2018-03-25T09:36:06.877Z,25.33
2018-03-25T09:38:34.369Z,24.53
2018-03-25T09:41:01.862Z,24.30
2018-03-25T09:43:30.142Z,25.63
2018-03-25T09:45:58.401Z,25.40
2018-03-25T09:48:25.916Z,25.70
2018-03-25T09:50:53.404Z,25.13
2018-03-25T09:53:20.933Z,27.77
2018-03-25T09:55:48.417Z,26.27
2018-03-25T09:58:15.930Z,27.00
2018-03-25T10:00:43.425Z,27.53
2018-03-25T10:03:15.884Z,27.67
2018-03-25T10:05:43.373Z,27.07
2018-03-25T10:08:11.629Z,27.60
2018-03-25T10:10:39.137Z,27.57
2018-03-25T10:13:07.401Z,26.60
2018-03-25T10:15:34.913Z,27.40
2018-03-25T10:18:02.401Z,28.70
2018-03-25T10:20:29.922Z,29.80
2018-03-25T10:22:57.413Z,28.70
2018-03-25T10:25:25.836Z,26.90
2018-03-25T10:27:53.353Z,26.30
2018-03-25T10:30:20.844Z,27.07
2018-03-25T10:32:49.126Z,25.70
2018-03-25T10:35:17.381Z,27.00
2018-03-25T10:37:44.914Z,24.60
2018-03-25T10:40:12.404Z,24.10
2018-03-25T10:42:40.664Z,25.83
2018-03-25T10:45:08.180Z,25.57
2018-03-25T10:47:35.669Z,24.63
2018-03-25T10:50:03.182Z,23.70
2018-03-25T10:52:30.673Z,23.57
2018-03-25T10:54:58.184Z,23.07
2018-03-25T10:57:26.448Z,23.67
2018-03-25T10:59:54.740Z,23.10
2018-03-25T11:02:22.997Z,23.53
2018-03-25T11:04:51.257Z,23.27
2018-03-25T11:07:18.768Z,23.00
2018-03-25T11:09:46.257Z,22.53
2018-03-25T11:12:13.768Z,22.83
2018-03-25T11:14:41.256Z,22.50
2018-03-25T11:17:08.764Z,22.70
2018-03-25T11:19:36.253Z,39.37
2018-03-25T11:22:03.766Z,23.10
2018-03-25T11:24:31.261Z,22.70
2018-03-25T11:26:58.764Z,23.03
2018-03-25T11:29:26.281Z,21.93
2018-03-25T11:31:53.784Z,21.27
2018-03-25T11:34:21.292Z,23.90
2018-03-25T11:36:49.548Z,24.93
2018-03-25T11:39:17.830Z,24.70
2018-03-25T11:41:46.093Z,25.10
2018-03-25T11:44:13.580Z,25.10
2018-03-25T11:46:41.102Z,26.27
2018-03-25T11:49:08.595Z,25.60
2018-03-25T11:51:36.872Z,24.77
2018-03-25T11:54:04.362Z,24.00
2018-03-25T11:56:31.878Z,23.47
2018-03-25T11:58:59.385Z,24.27
2018-03-25T12:01:26.871Z,24.50
2018-03-25T12:03:54.393Z,24.37
2018-03-25T12:06:21.876Z,23.20
2018-03-25T12:08:49.389Z,23.07
2018-03-25T12:11:16.939Z,22.07
2018-03-25T12:13:44.410Z,22.87
2018-03-25T12:16:11.901Z,23.00
2018-03-25T12:18:39.384Z,23.40
2018-03-25T12:21:06.898Z,23.93
2018-03-25T12:23:34.389Z,23.10
2018-03-25T12:26:01.901Z,23.80
2018-03-25T12:28:29.396Z,22.83
2018-03-25T12:30:56.914Z,24.50
2018-03-25T12:33:24.404Z,46.70
2018-03-25T12:35:51.916Z,25.30
2018-03-25T12:38:20.175Z,25.43
2018-03-25T12:40:47.669Z,25.70
2018-03-25T12:43:15.176Z,24.90
2018-03-25T12:45:42.666Z,24.30
2018-03-25T12:48:10.184Z,24.27
2018-03-25T12:50:37.673Z,24.50
2018-03-25T12:53:05.951Z,22.60
2018-03-25T12:55:34.208Z,22.33
2018-03-25T12:58:01.727Z,22.20
2018-03-25T13:00:29.228Z,21.47
2018-03-25T13:02:56.713Z,23.03
2018-03-25T13:05:24.997Z,21.30
2018-03-25T13:07:52.489Z,23.03
2018-03-25T13:10:20.001Z,22.20
2018-03-25T13:12:48.265Z,20.43
2018-03-25T13:15:16.541Z,20.67
2018-03-25T13:17:44.797Z,21.07
2018-03-25T13:20:12.312Z,20.03
2018-03-25T13:22:39.804Z,20.97
2018-03-25T13:25:07.319Z,21.93
2018-03-25T13:27:34.829Z,21.47
2018-03-25T13:30:02.325Z,22.47
2018-03-25T13:32:30.604Z,23.17
2018-03-25T13:34:58.092Z,23.00
2018-03-25T13:37:25.613Z,22.37
2018-03-25T13:39:53.869Z,22.63
2018-03-25T13:42:21.366Z,22.10
2018-03-25T13:44:48.881Z,21.13
2018-03-25T13:47:16.385Z,22.23
2018-03-25T13:49:43.904Z,21.00
2018-03-25T13:52:12.164Z,22.00
2018-03-25T13:54:39.677Z,21.60
2018-03-25T13:57:07.169Z,19.70
2018-03-25T13:59:34.657Z,20.93
2018-03-25T14:02:02.945Z,21.53
2018-03-25T14:04:31.208Z,19.47
2018-03-25T14:06:58.724Z,20.13
2018-03-25T14:09:26.217Z,20.43
2018-03-25T14:11:53.733Z,20.83
2018-03-25T14:14:21.225Z,20.77
2018-03-25T14:16:48.744Z,21.47
2018-03-25T14:19:16.241Z,22.43
2018-03-25T14:21:43.733Z,22.03
2018-03-25T14:24:12.017Z,20.70
2018-03-25T14:26:39.509Z,21.10
2018-03-25T14:29:07.025Z,22.00
2018-03-25T14:31:35.285Z,21.40
2018-03-25T14:34:03.565Z,22.20
2018-03-25T14:36:31.833Z,22.10
2018-03-25T14:38:59.354Z,21.90
2018-03-25T14:41:26.854Z,22.20
2018-03-25T14:43:55.116Z,20.30
2018-03-25T14:46:22.633Z,19.23
2018-03-25T14:48:50.125Z,18.67
2018-03-25T14:51:17.644Z,19.50
2018-03-25T14:53:45.145Z,20.53
2018-03-25T14:56:12.658Z,17.13
2018-03-25T14:58:40.149Z,18.00
2018-03-25T15:01:07.661Z,18.80
2018-03-25T15:03:35.920Z,18.80
2018-03-25T15:06:04.180Z,17.70
2018-03-25T15:08:31.697Z,18.20
2018-03-25T15:10:59.193Z,17.40
2018-03-25T15:13:26.707Z,18.67
2018-03-25T15:15:54.200Z,18.10
2018-03-25T15:18:21.714Z,18.70
2018-03-25T15:20:49.209Z,17.43
2018-03-25T15:23:16.729Z,18.57
2018-03-25T15:25:44.225Z,18.20
2018-03-25T15:28:11.721Z,19.93
2018-03-25T15:30:40.013Z,20.40
2018-03-25T15:33:08.284Z,19.10
2018-03-25T15:35:36.578Z,20.00
2018-03-25T15:38:04.147Z,18.50
2018-03-25T15:40:31.612Z,26.60
2018-03-25T15:42:59.105Z,22.23
2018-03-25T15:45:26.621Z,22.27
2018-03-25T15:47:54.117Z,22.70
2018-03-25T15:50:21.608Z,22.63
2018-03-25T15:52:49.881Z,21.83
2018-03-25T15:55:18.144Z,22.00
2018-03-25T15:57:45.670Z,22.80
2018-03-25T16:00:13.170Z,21.67
2018-03-25T16:02:40.685Z,22.00
2018-03-25T16:05:08.183Z,21.93
2018-03-25T16:07:35.697Z,21.70
2018-03-25T16:10:03.191Z,21.50
2018-03-25T16:12:30.684Z,21.67
2018-03-25T16:14:58.200Z,21.13
2018-03-25T16:17:25.692Z,21.50
2018-03-25T16:19:53.983Z,20.43
2018-03-25T16:22:21.481Z,21.00
2018-03-25T16:24:48.988Z,21.30
2018-03-25T16:27:17.248Z,21.60
2018-03-25T16:29:45.541Z,19.60
2018-03-25T16:32:13.840Z,20.67
2018-03-25T16:34:41.328Z,20.23
2018-03-25T16:37:08.845Z,20.33
2018-03-25T16:39:36.352Z,20.70
2018-03-25T16:42:03.860Z,20.00
2018-03-25T16:44:31.354Z,20.63
2018-03-25T16:46:58.881Z,20.03
2018-03-25T16:49:26.373Z,20.60
2018-03-25T16:51:53.896Z,20.20
2018-03-25T16:54:21.451Z,20.00
2018-03-25T16:56:48.946Z,19.67
2018-03-25T16:59:16.464Z,19.50
2018-03-25T17:01:43.967Z,19.97
2018-03-25T17:04:11.489Z,19.80
2018-03-25T17:06:38.978Z,21.10
2018-03-25T17:09:06.493Z,20.97
2018-03-25T17:11:34.749Z,19.30
2018-03-25T17:14:02.270Z,19.80
2018-03-25T17:16:29.761Z,21.40
2018-03-25T17:18:57.257Z,21.23
2018-03-25T17:21:24.781Z,20.63
2018-03-25T17:23:52.282Z,19.93
2018-03-25T17:26:19.800Z,20.57
2018-03-25T17:28:47.298Z,20.00
2018-03-25T17:31:14.814Z,18.37
2018-03-25T17:33:42.310Z,20.07
2018-03-25T17:36:09.829Z,18.67
2018-03-25T17:38:38.097Z,19.80
2018-03-25T17:41:05.595Z,20.00
2018-03-25T17:43:33.109Z,22.00
2018-03-25T17:46:00.605Z,20.70
2018-03-25T17:48:28.896Z,21.20
2018-03-25T17:50:56.401Z,21.80
2018-03-25T17:53:23.919Z,48.27
2018-03-25T17:55:51.473Z,49.70
2018-03-25T17:58:18.948Z,22.00
2018-03-25T18:00:46.452Z,19.50
2018-03-25T18:03:14.712Z,21.50
2018-03-25T18:05:42.250Z,20.57
2018-03-25T18:08:09.741Z,21.40
2018-03-25T18:10:37.253Z,21.10
2018-03-25T18:13:04.750Z,22.83
2018-03-25T18:15:32.265Z,28.10
2018-03-25T18:17:59.757Z,23.67
2018-03-25T18:20:27.278Z,23.20
2018-03-25T18:22:54.773Z,21.60
2018-03-25T18:25:22.261Z,25.20
2018-03-25T18:27:49.769Z,25.37
2018-03-25T18:30:17.261Z,23.03
2018-03-25T18:32:44.776Z,22.30
2018-03-25T18:35:12.275Z,22.03
2018-03-25T18:37:39.790Z,22.63
2018-03-25T18:40:07.290Z,20.40
2018-03-25T18:42:34.813Z,20.60
2018-03-25T18:45:02.308Z,20.87
2018-03-25T18:47:29.817Z,24.60
2018-03-25T18:49:57.347Z,27.20
2018-03-25T18:52:25.604Z,22.67
2018-03-25T18:54:53.119Z,23.13
2018-03-25T18:57:20.613Z,22.30
2018-03-25T18:59:48.125Z,22.57
2018-03-25T19:02:15.621Z,23.30
2018-03-25T19:04:43.136Z,21.87
2018-03-25T19:07:10.633Z,22.80
2018-03-25T19:09:38.126Z,23.20
2018-03-25T19:12:05.645Z,23.80
2018-03-25T19:14:33.141Z,22.23
2018-03-25T19:17:00.667Z,23.57
2018-03-25T19:19:28.161Z,23.83
2018-03-25T19:21:55.676Z,24.60
2018-03-25T19:24:23.219Z,24.50
2018-03-25T19:26:51.466Z,24.20
2018-03-25T19:29:19.729Z,24.80
2018-03-25T19:31:47.226Z,26.07
2018-03-25T19:34:14.745Z,25.00
2018-03-25T19:36:42.241Z,26.77
2018-03-25T19:39:09.761Z,35.53
2018-03-25T19:41:37.257Z,32.63
2018-03-25T19:44:04.773Z,31.87
2018-03-25T19:46:33.035Z,29.43
2018-03-25T19:49:00.560Z,58.80
2018-03-25T19:51:28.053Z,55.37
2018-03-25T19:53:55.545Z,41.47
2018-03-25T19:56:23.830Z,35.10
2018-03-25T19:58:52.088Z,41.70
2018-03-25T20:01:20.369Z,43.93
2018-03-25T20:03:48.625Z,33.30
2018-03-25T20:06:16.137Z,31.27
2018-03-25T20:08:43.629Z,32.17
2018-03-25T20:11:11.141Z,30.40
2018-03-25T20:13:38.633Z,28.73
2018-03-25T20:16:06.144Z,29.27
2018-03-25T20:18:34.425Z,28.87
2018-03-25T20:21:02.681Z,28.03
2018-03-25T20:23:30.965Z,27.77
2018-03-25T20:25:58.469Z,28.10
2018-03-25T20:28:25.981Z,25.57
2018-03-25T20:30:54.241Z,30.97
2018-03-25T20:33:21.763Z,29.50
2018-03-25T20:35:49.253Z,29.77
2018-03-25T20:38:16.762Z,30.27
2018-03-25T20:40:44.290Z,27.67
2018-03-25T20:43:12.549Z,31.00
2018-03-25T20:45:40.062Z,31.90
2018-03-25T20:48:07.553Z,31.30
2018-03-25T20:50:35.072Z,30.37
2018-03-25T20:53:02.564Z,29.87
2018-03-25T20:55:30.079Z,29.40
2018-03-25T20:57:57.573Z,30.30
2018-03-25T21:00:25.069Z,28.27
2018-03-25T21:02:52.622Z,25.57
2018-03-25T21:05:20.093Z,30.00
2018-03-25T21:07:48.373Z,27.03
2018-03-25T21:10:16.629Z,26.07
2018-03-25T21:12:44.168Z,23.43
2018-03-25T21:15:11.654Z,24.93
2018-03-25T21:17:39.173Z,25.03
2018-03-25T21:20:06.660Z,27.07
2018-03-25T21:22:34.152Z,27.90
2018-03-25T21:25:01.669Z,25.37
2018-03-25T21:27:29.161Z,26.13
2018-03-25T21:29:57.443Z,24.67
2018-03-25T21:32:25.692Z,24.30
2018-03-25T21:34:53.205Z,25.33
2018-03-25T21:37:20.692Z,25.50
2018-03-25T21:39:48.200Z,25.30
2018-03-25T21:42:15.693Z,25.20
2018-03-25T21:44:43.181Z,25.60
2018-03-25T21:47:10.693Z,24.70
2018-03-25T21:49:38.185Z,24.77
2018-03-25T21:52:05.704Z,25.57
2018-03-25T21:54:33.192Z,26.10
2018-03-25T21:57:00.700Z,25.87
2018-03-25T21:59:28.948Z,25.13
2018-03-25T22:01:56.456Z,28.27
2018-03-25T22:04:23.940Z,27.40
2018-03-25T22:06:51.434Z,26.03
2018-03-25T22:09:19.719Z,24.13
2018-03-25T22:11:47.973Z,24.40
2018-03-25T22:14:15.487Z,24.80
2018-03-25T22:16:42.982Z,25.60
2018-03-25T22:19:10.489Z,25.07
2018-03-25T22:21:37.988Z,25.30
2018-03-25T22:24:05.504Z,25.00
2018-03-25T22:26:33.005Z,25.23
2018-03-25T22:29:00.575Z,26.70
2018-03-25T22:31:28.030Z,25.83
2018-03-25T22:33:55.516Z,25.27
2018-03-25T22:36:23.789Z,25.20
2018-03-25T22:38:52.049Z,24.90
2018-03-25T22:41:19.569Z,24.50
2018-03-25T22:43:47.057Z,25.43
2018-03-25T22:46:14.564Z,26.27
2018-03-25T22:48:42.048Z,23.97
2018-03-25T22:51:09.537Z,26.40
2018-03-25T22:53:37.045Z,25.27
2018-03-25T22:56:04.533Z,25.13
2018-03-25T22:58:32.041Z,25.47
2018-03-25T23:01:00.292Z,24.37
2018-03-25T23:03:27.801Z,24.23
2018-03-25T23:05:55.297Z,24.43
2018-03-25T23:08:22.804Z,25.10
2018-03-25T23:10:50.297Z,26.00
2018-03-25T23:13:17.789Z,23.70
2018-03-25T23:15:45.296Z,26.17
2018-03-25T23:18:12.792Z,24.43
2018-03-25T23:20:40.305Z,24.50
2018-03-25T23:23:07.789Z,25.30
2018-03-25T23:25:35.300Z,24.60
2018-03-25T23:28:03.560Z,23.53
2018-03-25T23:30:31.064Z,26.10
2018-03-25T23:32:58.553Z,26.33
2018-03-25T23:35:26.044Z,24.73
2018-03-25T23:37:54.320Z,25.30
2018-03-25T23:40:22.577Z,25.10
2018-03-25T23:42:50.094Z,26.17
2018-03-25T23:45:17.584Z,23.50
2018-03-25T23:47:45.099Z,24.60
2018-03-25T23:50:12.592Z,24.27
2018-03-25T23:52:40.081Z,22.87
2018-03-25T23:55:08.357Z,24.40
2018-03-25T23:57:36.608Z,24.67
